sensor_id;sensor_type;location;lat;lon;timestamp;pressure;altitude;pressure_sealevel;temperature;humidity
69245;BME280;56357;52.304;4.870;2022-08-19T00:01:39;101606.41;;;22.70;64.59
69245;BME280;56357;52.304;4.870;2022-08-19T00:04:08;101603.84;;;22.69;64.33
69245;BME280;56357;52.304;4.870;2022-08-19T00:06:37;101597.94;;;22.65;64.53
69245;BME280;56357;52.304;4.870;2022-08-19T00:09:07;101597.69;;;22.62;64.60
69245;BME280;56357;52.304;4.870;2022-08-19T00:11:35;101595.97;;;22.66;64.84
69245;BME280;56357;52.304;4.870;2022-08-19T00:14:04;101600.22;;;22.63;64.38
69245;BME280;56357;52.304;4.870;2022-08-19T00:16:31;101594.25;;;22.65;64.59
69245;BME280;56357;52.304;4.870;2022-08-19T00:18:58;101589.78;;;22.64;64.37
69245;BME280;56357;52.304;4.870;2022-08-19T00:21:25;101582.44;;;22.63;64.33
69245;BME280;56357;52.304;4.870;2022-08-19T00:23:53;101578.22;;;22.60;64.43
69245;BME280;56357;52.304;4.870;2022-08-19T00:26:24;101575.41;;;22.60;64.71
69245;BME280;56357;52.304;4.870;2022-08-19T00:28:50;101587.00;;;22.59;64.47
69245;BME280;56357;52.304;4.870;2022-08-19T00:31:17;101593.78;;;22.53;64.92
69245;BME280;56357;52.304;4.870;2022-08-19T00:33:43;101596.31;;;22.54;64.95
69245;BME280;56357;52.304;4.870;2022-08-19T00:36:11;101601.09;;;22.54;65.03
69245;BME280;56357;52.304;4.870;2022-08-19T00:38:39;101596.59;;;22.58;65.12
69245;BME280;56357;52.304;4.870;2022-08-19T00:41:10;101592.91;;;22.57;64.76
69245;BME280;56357;52.304;4.870;2022-08-19T00:43:38;101589.53;;;22.50;65.07
69245;BME280;56357;52.304;4.870;2022-08-19T00:46:06;101590.94;;;22.53;64.88
69245;BME280;56357;52.304;4.870;2022-08-19T00:48:34;101587.88;;;22.49;64.88
69245;BME280;56357;52.304;4.870;2022-08-19T00:51:01;101590.09;;;22.52;64.71
69245;BME280;56357;52.304;4.870;2022-08-19T00:53:29;101596.34;;;22.49;64.98
69245;BME280;56357;52.304;4.870;2022-08-19T00:56:00;101593.22;;;22.51;64.90
69245;BME280;56357;52.304;4.870;2022-08-19T00:58:31;101594.59;;;22.53;64.95
69245;BME280;56357;52.304;4.870;2022-08-19T01:00:59;101585.63;;;22.46;65.08
69245;BME280;56357;52.304;4.870;2022-08-19T01:03:26;101597.75;;;22.47;64.89
69245;BME280;56357;52.304;4.870;2022-08-19T01:05:53;101606.50;;;22.50;64.84
69245;BME280;56357;52.304;4.870;2022-08-19T01:08:21;101590.97;;;22.48;64.88
69245;BME280;56357;52.304;4.870;2022-08-19T01:10:57;101604.81;;;22.49;64.88
69245;BME280;56357;52.304;4.870;2022-08-19T01:13:29;101608.50;;;22.45;65.06
69245;BME280;56357;52.304;4.870;2022-08-19T01:16:01;101608.50;;;22.45;65.35
69245;BME280;56357;52.304;4.870;2022-08-19T01:18:29;101608.50;;;22.45;65.10
69245;BME280;56357;52.304;4.870;2022-08-19T01:20:58;101598.94;;;22.41;65.03
69245;BME280;56357;52.304;4.870;2022-08-19T01:23:26;101596.09;;;22.41;64.93
69245;BME280;56357;52.304;4.870;2022-08-19T01:26:13;101595.00;;;22.37;65.26
69245;BME280;56357;52.304;4.870;2022-08-19T01:28:41;101597.25;;;22.35;64.88
69245;BME280;56357;52.304;4.870;2022-08-19T01:31:10;101607.69;;;22.34;64.93
69245;BME280;56357;52.304;4.870;2022-08-19T01:33:38;101589.94;;;22.34;65.03
69245;BME280;56357;52.304;4.870;2022-08-19T01:36:07;101592.50;;;22.30;65.16
69245;BME280;56357;52.304;4.870;2022-08-19T01:38:37;101597.06;;;22.26;65.24
69245;BME280;56357;52.304;4.870;2022-08-19T01:41:04;101599.31;;;22.24;65.29
69245;BME280;56357;52.304;4.870;2022-08-19T01:43:32;101606.94;;;22.24;65.42
69245;BME280;56357;52.304;4.870;2022-08-19T01:45:59;101612.28;;;22.25;65.01
69245;BME280;56357;52.304;4.870;2022-08-19T01:48:26;101604.66;;;22.21;64.98
69245;BME280;56357;52.304;4.870;2022-08-19T01:50:54;101608.66;;;22.20;65.26
69245;BME280;56357;52.304;4.870;2022-08-19T01:53:20;101614.00;;;22.21;65.27
69245;BME280;56357;52.304;4.870;2022-08-19T01:55:47;101609.78;;;22.19;65.08
69245;BME280;56357;52.304;4.870;2022-08-19T01:58:21;101612.06;;;22.17;64.97
69245;BME280;56357;52.304;4.870;2022-08-19T02:00:48;101616.56;;;22.18;64.86
69245;BME280;56357;52.304;4.870;2022-08-19T02:03:15;101610.06;;;22.17;65.06
69245;BME280;56357;52.304;4.870;2022-08-19T02:05:43;101612.06;;;22.17;64.96
69245;BME280;56357;52.304;4.870;2022-08-19T02:08:11;101601.88;;;22.16;65.21
69245;BME280;56357;52.304;4.870;2022-08-19T02:10:42;101599.63;;;22.18;65.12
69245;BME280;56357;52.304;4.870;2022-08-19T02:13:09;101601.34;;;22.14;64.95
69245;BME280;56357;52.304;4.870;2022-08-19T02:15:37;101593.75;;;22.09;65.12
69245;BME280;56357;52.304;4.870;2022-08-19T02:18:04;101599.66;;;22.13;65.45
69245;BME280;56357;52.304;4.870;2022-08-19T02:20:30;101593.72;;;22.14;65.13
69245;BME280;56357;52.304;4.870;2022-08-19T02:22:56;101606.13;;;22.13;65.30
69245;BME280;56357;52.304;4.870;2022-08-19T02:25:23;101607.56;;;22.11;65.23
69245;BME280;56357;52.304;4.870;2022-08-19T02:27:49;101598.22;;;22.15;65.19
69245;BME280;56357;52.304;4.870;2022-08-19T02:30:16;101594.59;;;22.10;65.28
69245;BME280;56357;52.304;4.870;2022-08-19T02:32:44;101597.41;;;22.10;65.15
69245;BME280;56357;52.304;4.870;2022-08-19T02:35:12;101599.66;;;22.08;65.44
69245;BME280;56357;52.304;4.870;2022-08-19T02:37:40;101599.72;;;22.03;65.11
69245;BME280;56357;52.304;4.870;2022-08-19T02:40:24;101596.88;;;22.03;65.35
69245;BME280;56357;52.304;4.870;2022-08-19T02:42:51;101594.06;;;22.03;65.31
69245;BME280;56357;52.304;4.870;2022-08-19T02:45:18;101596.31;;;22.01;65.32
69245;BME280;56357;52.304;4.870;2022-08-19T02:47:45;101605.66;;;22.01;65.30
69245;BME280;56357;52.304;4.870;2022-08-19T02:50:11;101595.47;;;22.00;65.06
69245;BME280;56357;52.304;4.870;2022-08-19T02:52:38;101598.59;;;21.99;65.26
69245;BME280;56357;52.304;4.870;2022-08-19T02:55:06;101592.09;;;21.98;65.07
69245;BME280;56357;52.304;4.870;2022-08-19T02:57:32;101582.25;;;21.96;65.03
69245;BME280;56357;52.304;4.870;2022-08-19T02:59:59;101578.84;;;21.99;64.99
69245;BME280;56357;52.304;4.870;2022-08-19T03:02:26;101576.63;;;21.96;65.03
69245;BME280;56357;52.304;4.870;2022-08-19T03:04:53;101574.34;;;21.98;65.01
69245;BME280;56357;52.304;4.870;2022-08-19T03:07:19;101567.31;;;21.90;65.23
69245;BME280;56357;52.304;4.870;2022-08-19T03:09:46;101566.75;;;21.93;65.36
69245;BME280;56357;52.304;4.870;2022-08-19T03:12:13;101564.22;;;21.92;65.26
69245;BME280;56357;52.304;4.870;2022-08-19T03:14:39;101565.94;;;21.88;65.36
69245;BME280;56357;52.304;4.870;2022-08-19T03:17:06;101573.25;;;21.89;65.13
69245;BME280;56357;52.304;4.870;2022-08-19T03:19:33;101563.66;;;21.84;65.51
69245;BME280;56357;52.304;4.870;2022-08-19T03:21:59;101572.44;;;21.83;65.21
69245;BME280;56357;52.304;4.870;2022-08-19T03:24:26;101571.88;;;21.86;65.26
69245;BME280;56357;52.304;4.870;2022-08-19T03:26:54;101574.41;;;21.82;65.38
69245;BME280;56357;52.304;4.870;2022-08-19T03:29:23;101570.47;;;21.83;65.19
69245;BME280;56357;52.304;4.870;2022-08-19T03:31:49;101560.28;;;21.77;65.44
69245;BME280;56357;52.304;4.870;2022-08-19T03:34:20;101558.34;;;21.78;65.29
69245;BME280;56357;52.304;4.870;2022-08-19T03:36:47;101554.69;;;21.72;65.73
69245;BME280;56357;52.304;4.870;2022-08-19T03:39:14;101568.19;;;21.75;65.64
69245;BME280;56357;52.304;4.870;2022-08-19T03:41:44;101560.59;;;21.76;65.56
69245;BME280;56357;52.304;4.870;2022-08-19T03:44:18;101561.44;;;21.76;65.38
69245;BME280;56357;52.304;4.870;2022-08-19T03:46:51;101561.44;;;21.76;65.49
69245;BME280;56357;52.304;4.870;2022-08-19T03:49:19;101558.63;;;21.76;65.38
69245;BME280;56357;52.304;4.870;2022-08-19T03:51:46;101562.00;;;21.73;65.78
69245;BME280;56357;52.304;4.870;2022-08-19T03:54:14;101562.28;;;21.72;65.78
69245;BME280;56357;52.304;4.870;2022-08-19T03:56:43;101560.31;;;21.72;65.46
69245;BME280;56357;52.304;4.870;2022-08-19T03:59:12;101567.38;;;21.70;65.59
69245;BME280;56357;52.304;4.870;2022-08-19T04:01:39;101563.44;;;21.66;65.67
69245;BME280;56357;52.304;4.870;2022-08-19T04:04:06;101563.47;;;21.56;66.04
69245;BME280;56357;52.304;4.870;2022-08-19T04:06:34;101570.25;;;21.50;66.46
69245;BME280;56357;52.304;4.870;2022-08-19T04:09:03;101578.16;;;21.48;66.09
69245;BME280;56357;52.304;4.870;2022-08-19T04:11:35;101569.16;;;21.41;66.38
69245;BME280;56357;52.304;4.870;2022-08-19T04:14:04;101557.63;;;21.37;66.53
69245;BME280;56357;52.304;4.870;2022-08-19T04:16:30;101563.53;;;21.36;66.83
69245;BME280;56357;52.304;4.870;2022-08-19T04:19:00;101573.38;;;21.38;66.55
69245;BME280;56357;52.304;4.870;2022-08-19T04:21:27;101578.47;;;21.36;67.08
69245;BME280;56357;52.304;4.870;2022-08-19T04:23:55;101574.53;;;21.37;66.83
69245;BME280;56357;52.304;4.870;2022-08-19T04:26:24;101573.13;;;21.40;66.49
69245;BME280;56357;52.304;4.870;2022-08-19T04:28:52;101572.25;;;21.44;66.61
69245;BME280;56357;52.304;4.870;2022-08-19T04:31:21;101577.59;;;21.46;66.60
69245;BME280;56357;52.304;4.870;2022-08-19T04:33:52;101569.69;;;21.48;66.66
69245;BME280;56357;52.304;4.870;2022-08-19T04:36:22;101568.84;;;21.52;66.43
69245;BME280;56357;52.304;4.870;2022-08-19T04:38:53;101573.38;;;21.53;66.47
69245;BME280;56357;52.304;4.870;2022-08-19T04:41:21;101573.94;;;21.50;66.87
69245;BME280;56357;52.304;4.870;2022-08-19T04:44:05;101567.16;;;21.51;66.89
69245;BME280;56357;52.304;4.870;2022-08-19T04:46:32;101569.44;;;21.44;67.09
69245;BME280;56357;52.304;4.870;2022-08-19T04:49:00;101573.94;;;21.45;67.03
69245;BME280;56357;52.304;4.870;2022-08-19T04:51:27;101580.16;;;21.47;67.11
69245;BME280;56357;52.304;4.870;2022-08-19T04:53:55;101577.31;;;21.42;67.20
69245;BME280;56357;52.304;4.870;2022-08-19T04:56:22;101575.06;;;21.44;67.08
69245;BME280;56357;52.304;4.870;2022-08-19T04:58:51;101581.81;;;21.53;66.94
69245;BME280;56357;52.304;4.870;2022-08-19T05:01:21;101572.81;;;21.46;67.04
69245;BME280;56357;52.304;4.870;2022-08-19T05:03:49;101580.13;;;21.42;67.52
69245;BME280;56357;52.304;4.870;2022-08-19T05:06:17;101582.69;;;21.44;67.72
69245;BME280;56357;52.304;4.870;2022-08-19T05:08:44;101588.59;;;21.42;67.82
69245;BME280;56357;52.304;4.870;2022-08-19T05:11:15;101586.34;;;21.44;67.70
69245;BME280;56357;52.304;4.870;2022-08-19T05:13:43;101592.81;;;21.45;68.10
69245;BME280;56357;52.304;4.870;2022-08-19T05:16:12;101590.56;;;21.47;68.10
69245;BME280;56357;52.304;4.870;2022-08-19T05:18:39;101594.81;;;21.49;67.98
69245;BME280;56357;52.304;4.870;2022-08-19T05:21:24;101590.84;;;21.45;67.85
69245;BME280;56357;52.304;4.870;2022-08-19T05:24:09;101598.75;;;21.43;68.13
69245;BME280;56357;52.304;4.870;2022-08-19T05:26:37;101597.03;;;21.42;68.45
69245;BME280;56357;52.304;4.870;2022-08-19T05:29:04;101602.13;;;21.45;68.41
69245;BME280;56357;52.304;4.870;2022-08-19T05:31:32;101590.53;;;21.57;68.02
69245;BME280;56357;52.304;4.870;2022-08-19T05:33:59;101593.34;;;21.52;68.38
69245;BME280;56357;52.304;4.870;2022-08-19T05:36:27;101593.66;;;21.50;68.34
69245;BME280;56357;52.304;4.870;2022-08-19T05:38:54;101590.53;;;21.52;68.24
69245;BME280;56357;52.304;4.870;2022-08-19T05:41:21;101586.31;;;21.54;68.26
69245;BME280;56357;52.304;4.870;2022-08-19T05:43:48;101590.84;;;21.55;68.23
69245;BME280;56357;52.304;4.870;2022-08-19T05:46:17;101586.84;;;21.61;68.31
69245;BME280;56357;52.304;4.870;2022-08-19T05:48:45;101584.88;;;21.62;68.56
69245;BME280;56357;52.304;4.870;2022-08-19T05:51:11;101594.75;;;21.64;68.29
69245;BME280;56357;52.304;4.870;2022-08-19T05:53:38;101588.53;;;21.67;68.69
69245;BME280;56357;52.304;4.870;2022-08-19T05:56:13;101594.16;;;21.67;68.55
69245;BME280;56357;52.304;4.870;2022-08-19T05:58:41;101589.09;;;21.69;68.80
69245;BME280;56357;52.304;4.870;2022-08-19T06:01:17;101593.59;;;21.70;68.43
69245;BME280;56357;52.304;4.870;2022-08-19T06:03:44;101593.03;;;21.63;68.46
69245;BME280;56357;52.304;4.870;2022-08-19T06:06:14;101593.03;;;21.63;68.63
69245;BME280;56357;52.304;4.870;2022-08-19T06:08:41;101597.88;;;21.63;68.85
69245;BME280;56357;52.304;4.870;2022-08-19T06:11:24;101582.88;;;21.72;68.77
69245;BME280;56357;52.304;4.870;2022-08-19T06:14:00;101578.34;;;21.87;68.14
69245;BME280;56357;52.304;4.870;2022-08-19T06:16:27;101577.50;;;21.76;68.73
69245;BME280;56357;52.304;4.870;2022-08-19T06:18:59;101579.50;;;21.65;69.18
69245;BME280;56357;52.304;4.870;2022-08-19T06:21:28;101583.78;;;21.63;69.35
69245;BME280;56357;52.304;4.870;2022-08-19T06:23:56;101582.06;;;21.62;69.77
69245;BME280;56357;52.304;4.870;2022-08-19T06:26:23;101579.53;;;21.60;69.30
69245;BME280;56357;52.304;4.870;2022-08-19T06:28:50;101587.66;;;21.67;69.17
69245;BME280;56357;52.304;4.870;2022-08-19T06:31:19;101598.38;;;21.70;69.29
69245;BME280;56357;52.304;4.870;2022-08-19T06:33:47;101596.69;;;21.69;69.01
69245;BME280;56357;52.304;4.870;2022-08-19T06:38:49;101593.56;;;21.75;69.27
69245;BME280;56357;52.304;4.870;2022-08-19T06:41:15;101592.72;;;21.85;68.92
69245;BME280;56357;52.304;4.870;2022-08-19T06:43:42;101596.41;;;21.86;69.02
69245;BME280;56357;52.304;4.870;2022-08-19T06:46:11;101590.44;;;21.97;68.86
69245;BME280;56357;52.304;4.870;2022-08-19T06:48:38;101589.88;;;21.95;69.05
69245;BME280;56357;52.304;4.870;2022-08-19T06:51:04;101582.22;;;22.01;69.02
69245;BME280;56357;52.304;4.870;2022-08-19T06:53:32;101589.56;;;21.97;69.35
69245;BME280;56357;52.304;4.870;2022-08-19T06:55:58;101587.00;;;22.00;69.32
69245;BME280;56357;52.304;4.870;2022-08-19T06:58:31;101592.66;;;22.05;69.43
69245;BME280;56357;52.304;4.870;2022-08-19T07:00:59;101585.28;;;22.09;69.30
69245;BME280;56357;52.304;4.870;2022-08-19T07:03:29;101582.72;;;22.13;69.28
69245;BME280;56357;52.304;4.870;2022-08-19T07:05:56;101591.69;;;22.25;68.86
69245;BME280;56357;52.304;4.870;2022-08-19T07:08:24;101601.00;;;22.25;69.36
69245;BME280;56357;52.304;4.870;2022-08-19T07:10:52;101606.88;;;22.29;69.00
69245;BME280;56357;52.304;4.870;2022-08-19T07:13:19;101604.63;;;22.36;68.88
69245;BME280;56357;52.304;4.870;2022-08-19T07:15:46;101597.31;;;22.30;69.47
69245;BME280;56357;52.304;4.870;2022-08-19T07:18:14;101602.91;;;22.35;69.25
69245;BME280;56357;52.304;4.870;2022-08-19T07:20:41;101600.94;;;22.35;69.30
69245;BME280;56357;52.304;4.870;2022-08-19T07:23:08;101600.59;;;22.42;69.71
69245;BME280;56357;52.304;4.870;2022-08-19T07:25:36;101604.81;;;22.44;69.45
69245;BME280;56357;52.304;4.870;2022-08-19T07:28:03;101607.59;;;22.54;68.85
69245;BME280;56357;52.304;4.870;2022-08-19T07:30:32;101599.91;;;22.65;68.40
69245;BME280;56357;52.304;4.870;2022-08-19T07:33:02;101598.19;;;22.69;68.27
69245;BME280;56357;52.304;4.870;2022-08-19T07:35:28;101598.16;;;22.74;68.34
69245;BME280;56357;52.304;4.870;2022-08-19T07:37:57;101596.44;;;22.78;68.27
69245;BME280;56357;52.304;4.870;2022-08-19T07:40:24;101605.38;;;22.90;68.50
69245;BME280;56357;52.304;4.870;2022-08-19T07:42:50;101600.00;;;22.94;68.58
69245;BME280;56357;52.304;4.870;2022-08-19T07:45:17;101609.22;;;23.04;68.63
69245;BME280;56357;52.304;4.870;2022-08-19T07:47:43;101604.91;;;23.12;68.43
69245;BME280;56357;52.304;4.870;2022-08-19T07:50:11;101607.94;;;23.20;68.34
69245;BME280;56357;52.304;4.870;2022-08-19T07:52:38;101613.28;;;23.22;68.48
69245;BME280;56357;52.304;4.870;2022-08-19T07:55:07;101614.94;;;23.28;68.38
69245;BME280;56357;52.304;4.870;2022-08-19T07:57:34;101606.22;;;23.24;68.44
69245;BME280;56357;52.304;4.870;2022-08-19T08:00:00;101607.84;;;23.30;68.18
69245;BME280;56357;52.304;4.870;2022-08-19T08:02:27;101615.75;;;23.28;68.21
69245;BME280;56357;52.304;4.870;2022-08-19T08:04:53;101625.38;;;23.27;68.18
69245;BME280;56357;52.304;4.870;2022-08-19T08:07:37;101612.31;;;23.36;67.96
69245;BME280;56357;52.304;4.870;2022-08-19T08:10:21;101620.53;;;23.38;67.82
69245;BME280;56357;52.304;4.870;2022-08-19T08:12:48;101615.91;;;23.47;67.22
69245;BME280;56357;52.304;4.870;2022-08-19T08:15:15;101615.28;;;23.50;67.08
69245;BME280;56357;52.304;4.870;2022-08-19T08:17:43;101615.66;;;23.43;67.72
69245;BME280;56357;52.304;4.870;2022-08-19T08:20:12;101626.59;;;23.50;66.83
69245;BME280;56357;52.304;4.870;2022-08-19T08:22:43;101624.69;;;23.45;67.02
69245;BME280;56357;52.304;4.870;2022-08-19T08:25:27;101616.25;;;23.40;67.20
69245;BME280;56357;52.304;4.870;2022-08-19T08:27:54;101629.44;;;23.50;67.25
69245;BME280;56357;52.304;4.870;2022-08-19T08:30:24;101628.25;;;23.56;67.07
69245;BME280;56357;52.304;4.870;2022-08-19T08:32:51;101631.81;;;23.67;67.04
69245;BME280;56357;52.304;4.870;2022-08-19T08:35:20;101627.13;;;23.81;66.46
69245;BME280;56357;52.304;4.870;2022-08-19T08:37:50;101628.19;;;23.85;66.49
69245;BME280;56357;52.304;4.870;2022-08-19T08:40:22;101635.19;;;23.92;65.97
69245;BME280;56357;52.304;4.870;2022-08-19T08:48:42;101635.69;;;23.99;65.41
69245;BME280;56357;52.304;4.870;2022-08-19T08:51:18;101634.28;;;23.97;65.33
69245;BME280;56357;52.304;4.870;2022-08-19T08:53:47;101634.25;;;24.02;65.17
69245;BME280;56357;52.304;4.870;2022-08-19T08:56:15;101635.97;;;24.21;63.99
69245;BME280;56357;52.304;4.870;2022-08-19T08:58:51;101643.56;;;24.26;64.41
69245;BME280;56357;52.304;4.870;2022-08-19T09:01:20;101644.13;;;24.28;64.43
69245;BME280;56357;52.304;4.870;2022-08-19T09:03:47;101644.81;;;24.38;64.47
69245;BME280;56357;52.304;4.870;2022-08-19T09:06:29;101638.81;;;24.40;63.98
69245;BME280;56357;52.304;4.870;2022-08-19T09:09:03;101633.88;;;24.50;63.89
69245;BME280;56357;52.304;4.870;2022-08-19T09:16:57;101639.00;;;24.67;62.71
69245;BME280;56357;52.304;4.870;2022-08-19T09:19:24;101631.56;;;24.76;62.42
69245;BME280;56357;52.304;4.870;2022-08-19T09:21:51;101639.19;;;24.76;62.09
69245;BME280;56357;52.304;4.870;2022-08-19T09:24:17;101642.38;;;24.69;61.99
69245;BME280;56357;52.304;4.870;2022-08-19T09:26:44;101653.38;;;24.71;62.32
69245;BME280;56357;52.304;4.870;2022-08-19T09:29:10;101645.47;;;24.73;61.41
69245;BME280;56357;52.304;4.870;2022-08-19T09:31:37;101655.66;;;24.74;61.30
69245;BME280;56357;52.304;4.870;2022-08-19T09:34:04;101658.94;;;24.81;61.52
69245;BME280;56357;52.304;4.870;2022-08-19T09:36:31;101657.19;;;24.85;61.18
69245;BME280;56357;52.304;4.870;2022-08-19T09:39:02;101659.00;;;24.94;61.14
69245;BME280;56357;52.304;4.870;2022-08-19T09:41:29;101650.81;;;24.93;60.92
69245;BME280;56357;52.304;4.870;2022-08-19T09:43:57;101657.94;;;24.90;60.66
69245;BME280;56357;52.304;4.870;2022-08-19T09:46:26;101652.97;;;24.82;61.24
69245;BME280;56357;52.304;4.870;2022-08-19T09:48:54;101653.06;;;24.77;61.24
69245;BME280;56357;52.304;4.870;2022-08-19T09:51:26;101663.31;;;24.73;61.85
69245;BME280;56357;52.304;4.870;2022-08-19T09:53:53;101662.81;;;24.66;61.71
69245;BME280;56357;52.304;4.870;2022-08-19T09:56:21;101670.03;;;24.59;61.86
69245;BME280;56357;52.304;4.870;2022-08-19T09:58:48;101663.88;;;24.51;62.11
69245;BME280;56357;52.304;4.870;2022-08-19T10:01:27;101676.81;;;24.58;61.86
69245;BME280;56357;52.304;4.870;2022-08-19T10:03:56;101667.41;;;24.62;61.76
69245;BME280;56357;52.304;4.870;2022-08-19T10:06:29;101662.28;;;24.64;61.65
69245;BME280;56357;52.304;4.870;2022-08-19T10:08:59;101663.31;;;24.73;61.08
69245;BME280;56357;52.304;4.870;2022-08-19T10:11:26;101669.81;;;24.74;61.31
69245;BME280;56357;52.304;4.870;2022-08-19T10:13:53;101664.72;;;24.71;61.62
69245;BME280;56357;52.304;4.870;2022-08-19T10:16:22;101664.38;;;24.77;61.38
69245;BME280;56357;52.304;4.870;2022-08-19T10:18:49;101664.63;;;24.81;61.07
69245;BME280;56357;52.304;4.870;2022-08-19T10:21:19;101662.53;;;24.86;60.94
69245;BME280;56357;52.304;4.870;2022-08-19T10:23:48;101662.25;;;24.88;60.58
69245;BME280;56357;52.304;4.870;2022-08-19T10:26:18;101658.63;;;24.82;60.96
69245;BME280;56357;52.304;4.870;2022-08-19T10:28:49;101659.56;;;24.78;61.24
69245;BME280;56357;52.304;4.870;2022-08-19T10:31:18;101658.81;;;24.72;61.39
69245;BME280;56357;52.304;4.870;2022-08-19T10:33:47;101658.94;;;24.81;60.85
69245;BME280;56357;52.304;4.870;2022-08-19T10:36:17;101662.00;;;24.84;60.92
69245;BME280;56357;52.304;4.870;2022-08-19T10:38:46;101664.63;;;24.81;61.29
69245;BME280;56357;52.304;4.870;2022-08-19T10:41:16;101658.63;;;24.82;61.08
69245;BME280;56357;52.304;4.870;2022-08-19T10:43:44;101667.13;;;24.82;61.19
69245;BME280;56357;52.304;4.870;2022-08-19T10:46:13;101664.28;;;24.82;60.78
69245;BME280;56357;52.304;4.870;2022-08-19T10:48:41;101665.16;;;24.83;60.87
69245;BME280;56357;52.304;4.870;2022-08-19T10:51:08;101673.66;;;24.83;61.18
69245;BME280;56357;52.304;4.870;2022-08-19T10:53:52;101667.13;;;24.82;61.16
69245;BME280;56357;52.304;4.870;2022-08-19T10:56:18;101662.53;;;24.86;60.63
69245;BME280;56357;52.304;4.870;2022-08-19T10:59:03;101667.59;;;24.89;61.11
69245;BME280;56357;52.304;4.870;2022-08-19T11:01:31;101666.59;;;24.99;60.14
69245;BME280;56357;52.304;4.870;2022-08-19T11:04:00;101666.66;;;25.12;60.04
69245;BME280;56357;52.304;4.870;2022-08-19T11:06:27;101655.22;;;25.17;59.70
69245;BME280;56357;52.304;4.870;2022-08-19T11:08:54;101662.81;;;25.22;59.78
69245;BME280;56357;52.304;4.870;2022-08-19T11:11:21;101660.81;;;25.22;59.45
69245;BME280;56357;52.304;4.870;2022-08-19T11:13:49;101664.81;;;25.21;59.38
69245;BME280;56357;52.304;4.870;2022-08-19T11:16:22;101662.06;;;25.16;59.37
69245;BME280;56357;52.304;4.870;2022-08-19T11:18:53;101662.28;;;25.20;59.70
69245;BME280;56357;52.304;4.870;2022-08-19T11:21:31;101657.91;;;25.27;59.23
69245;BME280;56357;52.304;4.870;2022-08-19T11:24:00;101664.53;;;25.36;59.62
69245;BME280;56357;52.304;4.870;2022-08-19T11:26:29;101665.72;;;25.35;59.34
69245;BME280;56357;52.304;4.870;2022-08-19T11:28:57;101671.38;;;25.35;59.25
69245;BME280;56357;52.304;4.870;2022-08-19T11:31:26;101665.06;;;25.38;59.15
69245;BME280;56357;52.304;4.870;2022-08-19T11:33:53;101664.50;;;25.42;58.88
69245;BME280;56357;52.304;4.870;2022-08-19T11:36:20;101665.84;;;25.44;58.50
69245;BME280;56357;52.304;4.870;2022-08-19T11:38:48;101658.19;;;25.45;58.73
69245;BME280;56357;52.304;4.870;2022-08-19T11:41:16;101647.22;;;25.38;58.73
69245;BME280;56357;52.304;4.870;2022-08-19T11:43:43;101661.13;;;25.40;58.69
69245;BME280;56357;52.304;4.870;2022-08-19T11:46:13;101656.50;;;25.44;58.91
69245;BME280;56357;52.304;4.870;2022-08-19T11:48:40;101661.78;;;25.50;59.41
69245;BME280;56357;52.304;4.870;2022-08-19T11:51:09;101652.34;;;25.55;59.63
69245;BME280;56357;52.304;4.870;2022-08-19T11:53:37;101651.50;;;25.54;59.40
69245;BME280;56357;52.304;4.870;2022-08-19T11:56:05;101658.00;;;25.55;59.70
69245;BME280;56357;52.304;4.870;2022-08-19T11:58:32;101659.38;;;25.57;59.62
69245;BME280;56357;52.304;4.870;2022-08-19T12:00:59;101652.34;;;25.55;59.24
69245;BME280;56357;52.304;4.870;2022-08-19T12:03:25;101649.63;;;25.63;59.09
69245;BME280;56357;52.304;4.870;2022-08-19T12:05:52;101654.47;;;25.63;58.80
69245;BME280;56357;52.304;4.870;2022-08-19T12:08:19;101662.44;;;25.61;58.74
69245;BME280;56357;52.304;4.870;2022-08-19T12:10:45;101656.25;;;25.59;59.02
69245;BME280;56357;52.304;4.870;2022-08-19T12:13:13;101660.22;;;25.58;58.97
69245;BME280;56357;52.304;4.870;2022-08-19T12:15:45;101667.59;;;25.59;58.70
69245;BME280;56357;52.304;4.870;2022-08-19T12:18:12;101667.81;;;25.62;58.70
69245;BME280;56357;52.304;4.870;2022-08-19T12:20:41;101662.97;;;25.63;58.62
69245;BME280;56357;52.304;4.870;2022-08-19T12:23:09;101662.88;;;25.68;58.77
69245;BME280;56357;52.304;4.870;2022-08-19T12:25:37;101660.97;;;25.63;58.45
69245;BME280;56357;52.304;4.870;2022-08-19T12:28:20;101671.38;;;25.68;58.36
69245;BME280;56357;52.304;4.870;2022-08-19T12:30:48;101673.06;;;25.69;58.52
69245;BME280;56357;52.304;4.870;2022-08-19T12:33:16;101671.19;;;25.78;58.42
69245;BME280;56357;52.304;4.870;2022-08-19T12:35:44;101669.09;;;25.83;58.26
69245;BME280;56357;52.304;4.870;2022-08-19T12:38:12;101659.53;;;25.79;58.08
69245;BME280;56357;52.304;4.870;2022-08-19T12:40:39;101657.81;;;25.78;58.14
69245;BME280;56357;52.304;4.870;2022-08-19T12:43:09;101665.72;;;25.81;57.92
69245;BME280;56357;52.304;4.870;2022-08-19T12:45:37;101664.28;;;25.84;58.17
69245;BME280;56357;52.304;4.870;2022-08-19T12:48:04;101654.69;;;25.80;58.27
69245;BME280;56357;52.304;4.870;2022-08-19T12:50:30;101647.53;;;25.82;57.82
69245;BME280;56357;52.304;4.870;2022-08-19T12:52:57;101648.38;;;25.83;57.99
69245;BME280;56357;52.304;4.870;2022-08-19T12:55:24;101648.38;;;25.83;58.27
69245;BME280;56357;52.304;4.870;2022-08-19T12:57:53;101636.09;;;25.87;58.16
69245;BME280;56357;52.304;4.870;2022-08-19T13:00:21;101647.53;;;25.96;58.16
69245;BME280;56357;52.304;4.870;2022-08-19T13:02:51;101644.09;;;25.99;57.70
69245;BME280;56357;52.304;4.870;2022-08-19T13:05:22;101631.25;;;26.01;57.57
69245;BME280;56357;52.304;4.870;2022-08-19T13:07:50;101642.94;;;26.00;57.60
69245;BME280;56357;52.304;4.870;2022-08-19T13:10:19;101640.09;;;26.00;57.69
69245;BME280;56357;52.304;4.870;2022-08-19T13:12:48;101632.63;;;25.90;57.97